Condor — V7HJ5 — position and weather

sailwx.info

Track history (hours):
 
Tides and Currents Weather Stations Pressure Air Temp Water Temp Dewpoint Dewpoint Depression Visibility Wind Speed Wind Dir Waves Ship Positions

Condor

Last reported at 2017-Oct-18 00:10 UTC. Time now 2017-Oct-19 01:43 UTC.
Position N 35°60' W 023°59'.

Length 189 m; draft 10.5 m.

Type: Cargo ship. MMSI: 538002238.

Date/timePositionNaut miles runAvg speedWind from/ knotsBaromVisibWave heightAir tempDewpointWater temp
2017-Oct-18 00:10N 35°60' W 023°59'410.9
2017-Oct-17 23:49N 35°60' W 024°04'410.8
2017-Oct-17 23:29N 35°60' W 024°08'610.8
2017-Oct-17 22:58N 35°60' W 024°15'511.0
2017-Oct-17 22:30N 36°00' W 024°22'611.2
2017-Oct-17 22:00N 36°00' W 024°29'611.2
2017-Oct-17 21:30N 36°00' W 024°35'611.1
2017-Oct-17 21:00N 35°60' W 024°42'611.1
2017-Oct-17 20:30N 36°00' W 024°49'611.2
2017-Oct-17 20:00N 35°60' W 024°56'611.5
2017-Oct-17 19:30N 35°60' W 025°03'611.7
2017-Oct-17 19:01N 36°00' W 025°10'611.6
2017-Oct-17 18:30N 36°01' W 025°18'611.5
2017-Oct-17 18:00N 36°01' W 025°25'611.6
2017-Oct-17 17:30N 36°01' W 025°32'611.6
2017-Oct-17 17:01N 36°01' W 025°39'611.6
2017-Oct-17 16:30N 36°01' W 025°46'611.6
2017-Oct-17 16:00N 36°01' W 025°53'711.6
2017-Oct-17 15:26N 36°01' W 026°02'  
Track history (hours):
 
Tides and Currents Weather Stations Pressure Air Temp Water Temp Dewpoint Dewpoint Depression Visibility Wind Speed Wind Dir Waves Ship Positions

Condor

Last reported at 2017-Oct-18 00:10 UTC. Time now 2017-Oct-19 01:43 UTC.
Position N 35°60' W 023°59'.

Length 189 m; draft 10.5 m.

Type: Cargo ship. MMSI: 538002238.

Date/timePositionNaut miles runAvg speedWind from/ knotsBaromVisibWave heightAir tempDewpointWater temp
2017-Oct-18 00:10N 35°60' W 023°59'410.9
2017-Oct-17 23:49N 35°60' W 024°04'410.8
2017-Oct-17 23:29N 35°60' W 024°08'610.8
2017-Oct-17 22:58N 35°60' W 024°15'511.0
2017-Oct-17 22:30N 36°00' W 024°22'611.2
2017-Oct-17 22:00N 36°00' W 024°29'611.2
2017-Oct-17 21:30N 36°00' W 024°35'611.1
2017-Oct-17 21:00N 35°60' W 024°42'611.1
2017-Oct-17 20:30N 36°00' W 024°49'611.2
2017-Oct-17 20:00N 35°60' W 024°56'611.5
2017-Oct-17 19:30N 35°60' W 025°03'611.7
2017-Oct-17 19:01N 36°00' W 025°10'611.6
2017-Oct-17 18:30N 36°01' W 025°18'611.5
2017-Oct-17 18:00N 36°01' W 025°25'611.6
2017-Oct-17 17:30N 36°01' W 025°32'611.6
2017-Oct-17 17:01N 36°01' W 025°39'611.6
2017-Oct-17 16:30N 36°01' W 025°46'611.6
2017-Oct-17 16:00N 36°01' W 025°53'711.6
2017-Oct-17 15:26N 36°01' W 026°02'  

Dump ship's entire track history